PIMOHWEATHER Station Historical Data
Daily Summary for October 28, 2020 Units:  Metric    English   Both
Daily Weekly Monthly Yearly
  High: Low: Average:
Temperature: 32.0 °C 26.0 °C 28.1 °C
Dew Point: 25.0 °C 22.0 °C 23.9 °C
Humidity: 84% 55% 78%
Wind Speed: 28km/h 0km/h 11.6km/h
Wind Gust: 44km/h - -
Wind- - SSW
Pressure: 1017.4 hPa 1012.3 hPa -
Precipitation: 0.89 mm    
 
 
Tabular Data for October 28, 2020
Time Temperature Dew Point Pressure Wind Wind Speed Wind Gust Humidity Rainfall Rate (Hourly) solar
14:36 32.0 °C 22.0 °C 1012.3 hPa NNW 8 km/h 12 km/h 55% 0.00 mm 112.67 W/m2
14:42 32.0 °C 22.0 °C 1012.5 hPa West 8 km/h 12 km/h 56% 0.00 mm 133.10 W/m2
15:44 31.0 °C 24.0 °C 1013.0 hPa NNW 16 km/h 20 km/h 66% 0.00 mm 27.28 W/m2
15:49 31.0 °C 23.0 °C 1012.7 hPa NNW 12 km/h 16 km/h 66% 0.00 mm 25.56 W/m2
15:53 31.0 °C 23.0 °C 1012.7 hPa SW 8 km/h 12 km/h 65% 0.00 mm 24.71 W/m2
16:04 30.0 °C 23.0 °C 1012.7 hPa SW 12 km/h 16 km/h 65% 0.00 mm 32.05 W/m2
16:09 31.0 °C 23.0 °C 1012.8 hPa SW 15 km/h 24 km/h 65% 0.00 mm 35.11 W/m2
16:14 31.0 °C 24.0 °C 1013.0 hPa SW 23 km/h 28 km/h 66% 0.00 mm 37.68 W/m2
16:19 31.0 °C 24.0 °C 1013.0 hPa SW 24 km/h 28 km/h 68% 0.00 mm 37.19 W/m2
16:24 30.0 °C 24.0 °C 1013.1 hPa SW 20 km/h 28 km/h 69% 0.00 mm 32.42 W/m2
16:29 30.0 °C 24.0 °C 1013.3 hPa SW 25 km/h 36 km/h 70% 0.00 mm 27.65 W/m2
16:34 30.0 °C 24.0 °C 1013.3 hPa SW 15 km/h 20 km/h 70% 0.00 mm 29.85 W/m2
16:39 30.0 °C 24.0 °C 1013.2 hPa SW 25 km/h 32 km/h 70% 0.00 mm 34.25 W/m2
16:44 30.0 °C 24.0 °C 1013.3 hPa SSW 28 km/h 32 km/h 72% 0.00 mm 37.19 W/m2
16:49 30.0 °C 25.0 °C 1013.6 hPa SW 17 km/h 24 km/h 74% 0.00 mm 33.76 W/m2
16:54 30.0 °C 25.0 °C 1013.7 hPa SSW 20 km/h 28 km/h 75% 0.00 mm 29.85 W/m2
16:59 30.0 °C 25.0 °C 1013.8 hPa SSW 22 km/h 28 km/h 75% 0.00 mm 23.36 W/m2
17:04 30.0 °C 25.0 °C 1013.8 hPa SW 23 km/h 28 km/h 75% 0.00 mm 16.88 W/m2
17:09 30.0 °C 25.0 °C 1014.0 hPa SSW 15 km/h 20 km/h 75% 0.00 mm 10.39 W/m2
17:14 30.0 °C 25.0 °C 1014.0 hPa SW 20 km/h 24 km/h 75% 0.00 mm 6.48 W/m2
17:19 30.0 °C 24.0 °C 1014.1 hPa SW 13 km/h 16 km/h 74% 0.00 mm 4.77 W/m2
17:24 29.0 °C 24.0 °C 1014.3 hPa SW 15 km/h 20 km/h 74% 0.00 mm 3.79 W/m2
17:29 29.0 °C 24.0 °C 1014.4 hPa SW 13 km/h 20 km/h 74% 0.00 mm 1.22 W/m2
17:34 30.0 °C 24.0 °C 1014.5 hPa ESE 8 km/h 12 km/h 74% 0.00 mm 0.00 W/m2
17:39 29.0 °C 24.0 °C 1014.3 hPa ENE 12 km/h 16 km/h 74% 0.00 mm 0.00 W/m2
17:44 29.0 °C 24.0 °C 1014.6 hPa East 15 km/h 16 km/h 74% 0.00 mm 0.00 W/m2
17:49 28.0 °C 23.0 °C 1014.4 hPa NE 10 km/h 12 km/h 74% 0.00 mm 0.00 W/m2
17:54 28.0 °C 24.0 °C 1014.6 hPa NE 6 km/h 12 km/h 77% 1.80 mm 0.00 W/m2
17:59 28.0 °C 24.0 °C 1014.7 hPa West 7 km/h 8 km/h 79% 3.61 mm 0.00 W/m2
18:04 28.0 °C 24.0 °C 1014.7 hPa Calm   4 km/h 79% 5.41 mm 0.00 W/m2
18:09 28.0 °C 24.0 °C 1014.6 hPa South 4 km/h 8 km/h 79% 3.61 mm 0.00 W/m2
18:14 28.0 °C 24.0 °C 1014.7 hPa Calm     79% 1.80 mm 0.00 W/m2
18:19 28.0 °C 24.0 °C 1014.6 hPa Calm   4 km/h 79% 0.00 mm 0.00 W/m2
18:24 28.0 °C 24.0 °C 1014.7 hPa East 13 km/h 16 km/h 79% 0.00 mm 0.00 W/m2
18:29 28.0 °C 24.0 °C 1014.9 hPa WNW 5 km/h 8 km/h 79% 0.00 mm 0.00 W/m2
18:34 28.0 °C 24.0 °C 1014.9 hPa West 5 km/h 8 km/h 79% 0.00 mm 0.00 W/m2
18:39 28.0 °C 24.0 °C 1014.8 hPa WNW 7 km/h 8 km/h 79% 0.00 mm 0.00 W/m2
18:44 28.0 °C 24.0 °C 1014.8 hPa WNW 4 km/h 4 km/h 78% 0.00 mm 0.00 W/m2
18:49 28.0 °C 24.0 °C 1014.9 hPa West 6 km/h 8 km/h 78% 0.00 mm 0.00 W/m2
18:54 28.0 °C 24.0 °C 1014.9 hPa NW 5 km/h 8 km/h 79% 0.00 mm 0.00 W/m2
18:59 28.0 °C 24.0 °C 1014.9 hPa NNW 1 km/h 4 km/h 79% 0.00 mm 0.00 W/m2
19:04 28.0 °C 24.0 °C 1014.9 hPa West 5 km/h 8 km/h 80% 0.00 mm 0.00 W/m2
19:09 28.0 °C 24.0 °C 1015.2 hPa West 5 km/h 8 km/h 80% 0.00 mm 0.00 W/m2
19:14 28.0 °C 24.0 °C 1015.3 hPa WNW 3 km/h 4 km/h 80% 0.00 mm 0.00 W/m2
19:19 28.0 °C 24.0 °C 1015.3 hPa WSW 6 km/h 8 km/h 79% 0.00 mm 0.00 W/m2
19:24 28.0 °C 24.0 °C 1015.4 hPa SW 11 km/h 16 km/h 79% 0.00 mm 0.00 W/m2
19:29 28.0 °C 24.0 °C 1015.5 hPa WSW 5 km/h 8 km/h 80% 0.00 mm 0.00 W/m2
19:34 28.0 °C 24.0 °C 1015.5 hPa WSW 6 km/h 8 km/h 80% 0.00 mm 0.00 W/m2
19:39 28.0 °C 24.0 °C 1015.9 hPa West 5 km/h 8 km/h 80% 0.00 mm 0.00 W/m2
19:44 28.0 °C 24.0 °C 1015.9 hPa WSW 12 km/h 16 km/h 80% 0.00 mm 0.00 W/m2
19:49 28.0 °C 24.0 °C 1015.9 hPa East 6 km/h 12 km/h 80% 0.00 mm 0.00 W/m2
19:54 28.0 °C 24.0 °C 1016.0 hPa West 7 km/h 12 km/h 79% 0.00 mm 0.00 W/m2
19:59 28.0 °C 24.0 °C 1016.1 hPa SW 9 km/h 12 km/h 79% 0.00 mm 0.00 W/m2
20:04 28.0 °C 24.0 °C 1016.5 hPa WNW 4 km/h 4 km/h 78% 0.00 mm 0.00 W/m2
20:09 28.0 °C 24.0 °C 1016.5 hPa West 4 km/h 4 km/h 78% 0.00 mm 0.00 W/m2
20:14 28.0 °C 24.0 °C 1016.5 hPa West 5 km/h 12 km/h 79% 0.00 mm 0.00 W/m2
20:19 28.0 °C 24.0 °C 1016.4 hPa West 6 km/h 8 km/h 79% 0.00 mm 0.00 W/m2
20:24 28.0 °C 24.0 °C 1016.5 hPa WSW 7 km/h 12 km/h 80% 0.00 mm 0.00 W/m2
20:29 28.0 °C 24.0 °C 1016.6 hPa East 15 km/h 16 km/h 80% 0.00 mm 0.00 W/m2
20:34 28.0 °C 24.0 °C 1016.8 hPa WSW 14 km/h 16 km/h 80% 0.00 mm 0.00 W/m2
20:39 27.0 °C 24.0 °C 1016.8 hPa WSW 8 km/h 12 km/h 80% 0.00 mm 0.00 W/m2
20:44 27.0 °C 24.0 °C 1016.8 hPa WSW 9 km/h 12 km/h 80% 0.00 mm 0.00 W/m2
20:49 27.0 °C 24.0 °C 1017.0 hPa West 6 km/h 8 km/h 81% 0.00 mm 0.00 W/m2
20:54 27.0 °C 24.0 °C 1017.3 hPa SW 8 km/h 16 km/h 81% 0.00 mm 0.00 W/m2
20:59 27.0 °C 24.0 °C 1017.1 hPa SSW 7 km/h 8 km/h 82% 0.00 mm 0.00 W/m2
21:04 27.0 °C 24.0 °C 1017.2 hPa SW 10 km/h 16 km/h 83% 0.00 mm 0.00 W/m2
21:09 27.0 °C 24.0 °C 1017.3 hPa West 9 km/h 12 km/h 83% 0.00 mm 0.00 W/m2
21:14 27.0 °C 24.0 °C 1017.3 hPa West 8 km/h 12 km/h 83% 0.00 mm 0.00 W/m2
21:19 27.0 °C 24.0 °C 1017.4 hPa NW 9 km/h 12 km/h 83% 0.00 mm 0.00 W/m2
21:24 27.0 °C 24.0 °C 1017.4 hPa West 5 km/h 12 km/h 83% 0.00 mm 0.00 W/m2
21:29 27.0 °C 24.0 °C 1017.2 hPa West 5 km/h 12 km/h 83% 0.00 mm 0.00 W/m2
21:34 27.0 °C 24.0 °C 1017.3 hPa West 10 km/h 12 km/h 83% 0.00 mm 0.00 W/m2
21:39 27.0 °C 24.0 °C 1017.2 hPa WNW 8 km/h 12 km/h 83% 0.00 mm 0.00 W/m2
21:44 27.0 °C 24.0 °C 1017.2 hPa NW 6 km/h 12 km/h 83% 0.00 mm 0.00 W/m2
21:49 27.0 °C 24.0 °C 1017.2 hPa West 9 km/h 12 km/h 83% 0.00 mm 0.00 W/m2
21:54 27.0 °C 24.0 °C 1017.0 hPa West 5 km/h 8 km/h 83% 0.00 mm 0.00 W/m2
21:59 27.0 °C 24.0 °C 1017.1 hPa WNW 5 km/h 8 km/h 83% 0.00 mm 0.00 W/m2
22:03 27.0 °C 24.0 °C 1017.1 hPa NW 9 km/h 16 km/h 83% 0.00 mm 0.00 W/m2
22:34 27.0 °C 23.0 °C 1017.0 hPa ENE 9 km/h 12 km/h 82% 0.00 mm 0.00 W/m2
22:39 27.0 °C 23.0 °C 1016.8 hPa ENE 11 km/h 12 km/h 82% 0.00 mm 0.00 W/m2
22:44 27.0 °C 24.0 °C 1016.9 hPa North 5 km/h 8 km/h 82% 0.00 mm 0.00 W/m2
22:49 27.0 °C 24.0 °C 1017.0 hPa North 16 km/h 28 km/h 82% 0.00 mm 0.00 W/m2
22:54 27.0 °C 24.0 °C 1017.0 hPa North 15 km/h 20 km/h 83% 0.00 mm 0.00 W/m2
22:59 27.0 °C 24.0 °C 1017.0 hPa North 19 km/h 24 km/h 84% 0.00 mm 0.00 W/m2
23:04 27.0 °C 24.0 °C 1017.1 hPa North 20 km/h 24 km/h 83% 0.00 mm 0.00 W/m2
23:09 27.0 °C 24.0 °C 1017.1 hPa North 24 km/h 32 km/h 83% 0.00 mm 0.00 W/m2
23:14 27.0 °C 24.0 °C 1017.0 hPa North 26 km/h 40 km/h 83% 0.00 mm 0.00 W/m2
23:19 26.0 °C 23.0 °C 1017.0 hPa North 22 km/h 28 km/h 83% 0.00 mm 0.00 W/m2
23:24 26.0 °C 23.0 °C 1017.1 hPa North 28 km/h 44 km/h 83% 0.00 mm 0.00 W/m2
23:29 26.0 °C 23.0 °C 1017.1 hPa NNE 24 km/h 32 km/h 83% 0.00 mm 0.00 W/m2
23:34 26.0 °C 23.0 °C 1017.1 hPa North 21 km/h 32 km/h 83% 0.00 mm 0.00 W/m2
23:39 26.0 °C 23.0 °C 1017.1 hPa North 23 km/h 28 km/h 82% 0.00 mm 0.00 W/m2
23:44 26.0 °C 23.0 °C 1017.1 hPa North 20 km/h 28 km/h 82% 0.00 mm 0.00 W/m2
23:49 26.0 °C 23.0 °C 1017.0 hPa North 19 km/h 24 km/h 82% 0.00 mm 0.00 W/m2
23:54 26.0 °C 23.0 °C 1016.9 hPa North 15 km/h 20 km/h 81% 0.00 mm 0.00 W/m2
23:59 26.0 °C 23.0 °C 1017.0 hPa NNE 19 km/h 24 km/h 81% 0.00 mm 0.00 W/m2
PIMOHWEATHER Philippines
Compliments of Weather Underground - 2 mb